sensor_id;sensor_type;location;lat;lon;timestamp;temperature;humidity
31309;DHT22;17936;52.446;10.840;2022-12-07T00:01:15;2.90;99.90
31309;DHT22;17936;52.446;10.840;2022-12-07T00:03:42;2.90;99.90
31309;DHT22;17936;52.446;10.840;2022-12-07T00:06:14;2.90;99.90
31309;DHT22;17936;52.446;10.840;2022-12-07T00:08:40;2.90;99.90
31309;DHT22;17936;52.446;10.840;2022-12-07T00:11:08;2.90;99.90
31309;DHT22;17936;52.446;10.840;2022-12-07T00:13:34;2.90;99.90
31309;DHT22;17936;52.446;10.840;2022-12-07T00:16:06;2.90;99.90
31309;DHT22;17936;52.446;10.840;2022-12-07T00:18:32;3.00;99.90
31309;DHT22;17936;52.446;10.840;2022-12-07T00:21:13;2.90;99.90
31309;DHT22;17936;52.446;10.840;2022-12-07T00:23:43;3.00;99.90
31309;DHT22;17936;52.446;10.840;2022-12-07T00:26:11;3.00;99.90
31309;DHT22;17936;52.446;10.840;2022-12-07T00:28:40;3.10;99.90
31309;DHT22;17936;52.446;10.840;2022-12-07T00:31:13;3.10;99.90
31309;DHT22;17936;52.446;10.840;2022-12-07T00:33:57;3.10;99.90
31309;DHT22;17936;52.446;10.840;2022-12-07T00:36:23;3.20;99.90
31309;DHT22;17936;52.446;10.840;2022-12-07T00:38:49;3.20;99.90
31309;DHT22;17936;52.446;10.840;2022-12-07T00:41:19;3.20;99.90
31309;DHT22;17936;52.446;10.840;2022-12-07T00:43:58;3.20;99.90
31309;DHT22;17936;52.446;10.840;2022-12-07T00:46:24;3.20;99.90
31309;DHT22;17936;52.446;10.840;2022-12-07T00:48:55;3.20;99.90
31309;DHT22;17936;52.446;10.840;2022-12-07T00:51:23;3.20;99.90
31309;DHT22;17936;52.446;10.840;2022-12-07T00:53:49;3.20;99.90
31309;DHT22;17936;52.446;10.840;2022-12-07T00:56:33;3.20;99.90
31309;DHT22;17936;52.446;10.840;2022-12-07T00:59:03;3.30;99.90
31309;DHT22;17936;52.446;10.840;2022-12-07T01:01:32;3.20;99.90
31309;DHT22;17936;52.446;10.840;2022-12-07T01:03:58;3.30;99.90
31309;DHT22;17936;52.446;10.840;2022-12-07T01:06:29;3.20;99.90
31309;DHT22;17936;52.446;10.840;2022-12-07T01:08:55;3.30;99.90
31309;DHT22;17936;52.446;10.840;2022-12-07T01:11:23;3.30;99.90
31309;DHT22;17936;52.446;10.840;2022-12-07T01:14:12;3.30;99.90
31309;DHT22;17936;52.446;10.840;2022-12-07T01:16:38;3.30;99.90
31309;DHT22;17936;52.446;10.840;2022-12-07T01:19:06;3.40;99.90
31309;DHT22;17936;52.446;10.840;2022-12-07T01:21:41;3.40;99.90
31309;DHT22;17936;52.446;10.840;2022-12-07T01:24:10;3.40;99.90
31309;DHT22;17936;52.446;10.840;2022-12-07T01:26:36;3.40;99.90
31309;DHT22;17936;52.446;10.840;2022-12-07T01:29:13;3.40;99.90
31309;DHT22;17936;52.446;10.840;2022-12-07T01:31:41;3.40;99.90
31309;DHT22;17936;52.446;10.840;2022-12-07T01:34:07;3.40;99.90
31309;DHT22;17936;52.446;10.840;2022-12-07T01:36:41;3.40;99.90
31309;DHT22;17936;52.446;10.840;2022-12-07T01:39:09;3.40;99.90
31309;DHT22;17936;52.446;10.840;2022-12-07T01:41:43;3.40;99.90
31309;DHT22;17936;52.446;10.840;2022-12-07T01:44:19;3.40;99.90
31309;DHT22;17936;52.446;10.840;2022-12-07T01:47:04;3.40;99.90
31309;DHT22;17936;52.446;10.840;2022-12-07T01:49:37;3.40;99.90
31309;DHT22;17936;52.446;10.840;2022-12-07T01:52:23;3.30;99.90
31309;DHT22;17936;52.446;10.840;2022-12-07T01:55:01;3.40;99.90
31309;DHT22;17936;52.446;10.840;2022-12-07T01:57:27;3.40;99.90
31309;DHT22;17936;52.446;10.840;2022-12-07T01:59:56;3.40;99.90
31309;DHT22;17936;52.446;10.840;2022-12-07T02:02:26;3.40;99.90
31309;DHT22;17936;52.446;10.840;2022-12-07T02:04:59;3.40;99.90
31309;DHT22;17936;52.446;10.840;2022-12-07T02:07:26;3.40;99.90
31309;DHT22;17936;52.446;10.840;2022-12-07T02:09:55;3.50;99.90
31309;DHT22;17936;52.446;10.840;2022-12-07T02:12:24;3.50;99.90
31309;DHT22;17936;52.446;10.840;2022-12-07T02:14:52;3.50;99.90
31309;DHT22;17936;52.446;10.840;2022-12-07T02:17:30;3.60;99.90
31309;DHT22;17936;52.446;10.840;2022-12-07T02:26:02;3.60;99.90
31309;DHT22;17936;52.446;10.840;2022-12-07T02:28:45;3.60;99.90
31309;DHT22;17936;52.446;10.840;2022-12-07T02:31:26;3.60;99.90
31309;DHT22;17936;52.446;10.840;2022-12-07T02:34:21;3.70;99.90
31309;DHT22;17936;52.446;10.840;2022-12-07T02:36:54;3.70;99.90
31309;DHT22;17936;52.446;10.840;2022-12-07T02:39:34;3.70;99.90
31309;DHT22;17936;52.446;10.840;2022-12-07T02:42:16;3.70;99.90
31309;DHT22;17936;52.446;10.840;2022-12-07T02:45:05;3.70;99.90
31309;DHT22;17936;52.446;10.840;2022-12-07T02:47:31;3.80;99.90
31309;DHT22;17936;52.446;10.840;2022-12-07T02:49:59;3.80;99.90
31309;DHT22;17936;52.446;10.840;2022-12-07T02:52:32;3.80;99.90
31309;DHT22;17936;52.446;10.840;2022-12-07T02:55:00;3.80;99.90
31309;DHT22;17936;52.446;10.840;2022-12-07T02:57:51;3.90;99.90
31309;DHT22;17936;52.446;10.840;2022-12-07T03:00:20;3.80;99.90
31309;DHT22;17936;52.446;10.840;2022-12-07T03:03:09;3.80;99.90
31309;DHT22;17936;52.446;10.840;2022-12-07T03:06:06;3.90;99.90
31309;DHT22;17936;52.446;10.840;2022-12-07T03:08:51;3.80;99.90
31309;DHT22;17936;52.446;10.840;2022-12-07T03:11:51;3.90;99.90
31309;DHT22;17936;52.446;10.840;2022-12-07T03:14:29;3.80;99.90
31309;DHT22;17936;52.446;10.840;2022-12-07T03:17:00;3.80;99.90
31309;DHT22;17936;52.446;10.840;2022-12-07T03:19:28;3.90;99.90
31309;DHT22;17936;52.446;10.840;2022-12-07T03:22:07;3.90;99.90
31309;DHT22;17936;52.446;10.840;2022-12-07T03:24:38;3.90;99.90
31309;DHT22;17936;52.446;10.840;2022-12-07T03:27:15;3.90;99.90
31309;DHT22;17936;52.446;10.840;2022-12-07T03:29:47;3.90;99.90
31309;DHT22;17936;52.446;10.840;2022-12-07T03:32:23;3.90;99.90
31309;DHT22;17936;52.446;10.840;2022-12-07T03:35:08;3.90;99.90
31309;DHT22;17936;52.446;10.840;2022-12-07T03:38:00;4.00;99.90
31309;DHT22;17936;52.446;10.840;2022-12-07T03:40:40;4.00;99.90
31309;DHT22;17936;52.446;10.840;2022-12-07T03:43:13;4.00;99.90
31309;DHT22;17936;52.446;10.840;2022-12-07T03:48:15;4.00;99.90
31309;DHT22;17936;52.446;10.840;2022-12-07T03:51:03;4.00;99.90
31309;DHT22;17936;52.446;10.840;2022-12-07T03:53:40;4.10;99.90
31309;DHT22;17936;52.446;10.840;2022-12-07T03:56:09;4.10;99.90
31309;DHT22;17936;52.446;10.840;2022-12-07T03:58:36;4.10;99.90
31309;DHT22;17936;52.446;10.840;2022-12-07T04:01:14;4.00;99.90
31309;DHT22;17936;52.446;10.840;2022-12-07T04:03:42;4.00;99.90
31309;DHT22;17936;52.446;10.840;2022-12-07T04:06:12;4.00;99.90
31309;DHT22;17936;52.446;10.840;2022-12-07T04:08:40;4.10;99.90
31309;DHT22;17936;52.446;10.840;2022-12-07T04:11:13;4.10;99.90
31309;DHT22;17936;52.446;10.840;2022-12-07T04:13:51;4.10;99.90
31309;DHT22;17936;52.446;10.840;2022-12-07T04:16:35;4.10;99.90
31309;DHT22;17936;52.446;10.840;2022-12-07T04:19:01;4.10;99.90
31309;DHT22;17936;52.446;10.840;2022-12-07T04:21:26;4.10;99.90
31309;DHT22;17936;52.446;10.840;2022-12-07T04:23:52;4.10;99.90
31309;DHT22;17936;52.446;10.840;2022-12-07T04:26:20;4.10;99.90
31309;DHT22;17936;52.446;10.840;2022-12-07T04:28:57;4.00;99.90
31309;DHT22;17936;52.446;10.840;2022-12-07T04:31:32;4.00;99.90
31309;DHT22;17936;52.446;10.840;2022-12-07T04:34:00;4.00;99.90
31309;DHT22;17936;52.446;10.840;2022-12-07T04:36:29;4.00;99.90
31309;DHT22;17936;52.446;10.840;2022-12-07T04:38:57;4.00;99.90
31309;DHT22;17936;52.446;10.840;2022-12-07T04:41:28;4.00;99.90
31309;DHT22;17936;52.446;10.840;2022-12-07T04:44:01;4.00;99.90
31309;DHT22;17936;52.446;10.840;2022-12-07T04:46:30;4.00;99.90
31309;DHT22;17936;52.446;10.840;2022-12-07T04:49:00;4.00;99.90
31309;DHT22;17936;52.446;10.840;2022-12-07T04:51:28;4.00;99.90
31309;DHT22;17936;52.446;10.840;2022-12-07T04:53:56;4.10;99.90
31309;DHT22;17936;52.446;10.840;2022-12-07T04:56:29;4.00;99.90
31309;DHT22;17936;52.446;10.840;2022-12-07T04:58:55;4.00;99.90
31309;DHT22;17936;52.446;10.840;2022-12-07T05:01:23;4.00;99.90
31309;DHT22;17936;52.446;10.840;2022-12-07T05:03:49;4.00;99.90
31309;DHT22;17936;52.446;10.840;2022-12-07T05:06:15;4.00;99.90
31309;DHT22;17936;52.446;10.840;2022-12-07T05:08:44;3.90;99.90
31309;DHT22;17936;52.446;10.840;2022-12-07T05:11:13;4.00;99.90
31309;DHT22;17936;52.446;10.840;2022-12-07T05:13:57;4.00;99.90
31309;DHT22;17936;52.446;10.840;2022-12-07T05:16:23;4.00;99.90
31309;DHT22;17936;52.446;10.840;2022-12-07T05:18:49;3.90;99.90
31309;DHT22;17936;52.446;10.840;2022-12-07T05:21:14;3.90;99.90
31309;DHT22;17936;52.446;10.840;2022-12-07T05:23:43;3.90;99.90
31309;DHT22;17936;52.446;10.840;2022-12-07T05:26:10;3.90;99.90
31309;DHT22;17936;52.446;10.840;2022-12-07T05:28:41;3.90;99.90
31309;DHT22;17936;52.446;10.840;2022-12-07T05:31:22;3.90;99.90
31309;DHT22;17936;52.446;10.840;2022-12-07T05:33:52;3.90;99.90
31309;DHT22;17936;52.446;10.840;2022-12-07T05:36:21;3.80;99.90
31309;DHT22;17936;52.446;10.840;2022-12-07T05:38:56;3.80;99.90
31309;DHT22;17936;52.446;10.840;2022-12-07T05:41:24;3.80;99.90
31309;DHT22;17936;52.446;10.840;2022-12-07T05:44:11;3.80;99.90
31309;DHT22;17936;52.446;10.840;2022-12-07T05:46:39;3.70;99.90
31309;DHT22;17936;52.446;10.840;2022-12-07T05:49:10;3.80;99.90
31309;DHT22;17936;52.446;10.840;2022-12-07T05:51:35;3.80;99.90
31309;DHT22;17936;52.446;10.840;2022-12-07T05:54:01;3.70;99.90
31309;DHT22;17936;52.446;10.840;2022-12-07T05:56:27;3.80;99.90
31309;DHT22;17936;52.446;10.840;2022-12-07T05:58:55;3.70;99.90
31309;DHT22;17936;52.446;10.840;2022-12-07T06:01:39;3.70;99.90
31309;DHT22;17936;52.446;10.840;2022-12-07T06:04:05;3.70;99.90
31309;DHT22;17936;52.446;10.840;2022-12-07T06:06:33;3.70;99.90
31309;DHT22;17936;52.446;10.840;2022-12-07T06:08:58;3.70;99.90
31309;DHT22;17936;52.446;10.840;2022-12-07T06:11:27;3.70;99.90
31309;DHT22;17936;52.446;10.840;2022-12-07T06:14:11;3.60;99.90
31309;DHT22;17936;52.446;10.840;2022-12-07T06:16:55;3.60;99.90
31309;DHT22;17936;52.446;10.840;2022-12-07T06:19:23;3.60;99.90
31309;DHT22;17936;52.446;10.840;2022-12-07T06:22:04;3.60;99.90
31309;DHT22;17936;52.446;10.840;2022-12-07T06:24:44;3.60;99.90
31309;DHT22;17936;52.446;10.840;2022-12-07T06:27:19;3.60;99.90
31309;DHT22;17936;52.446;10.840;2022-12-07T06:29:45;3.50;99.90
31309;DHT22;17936;52.446;10.840;2022-12-07T06:32:12;3.50;99.90
31309;DHT22;17936;52.446;10.840;2022-12-07T06:34:46;3.50;99.90
31309;DHT22;17936;52.446;10.840;2022-12-07T06:37:17;3.50;99.90
31309;DHT22;17936;52.446;10.840;2022-12-07T06:39:43;3.40;99.90
31309;DHT22;17936;52.446;10.840;2022-12-07T06:42:08;3.40;99.90
31309;DHT22;17936;52.446;10.840;2022-12-07T06:44:34;3.40;99.90
31309;DHT22;17936;52.446;10.840;2022-12-07T06:47:00;3.40;99.90
31309;DHT22;17936;52.446;10.840;2022-12-07T06:49:25;3.40;99.90
31309;DHT22;17936;52.446;10.840;2022-12-07T06:51:51;3.40;99.90
31309;DHT22;17936;52.446;10.840;2022-12-07T06:54:19;3.40;99.90
31309;DHT22;17936;52.446;10.840;2022-12-07T06:56:49;3.40;99.90
31309;DHT22;17936;52.446;10.840;2022-12-07T06:59:31;3.40;99.90
31309;DHT22;17936;52.446;10.840;2022-12-07T07:01:59;3.40;99.90
31309;DHT22;17936;52.446;10.840;2022-12-07T07:04:24;3.40;99.90
31309;DHT22;17936;52.446;10.840;2022-12-07T07:06:50;3.40;99.90
31309;DHT22;17936;52.446;10.840;2022-12-07T07:09:16;3.40;99.90
31309;DHT22;17936;52.446;10.840;2022-12-07T07:11:43;3.40;99.90
31309;DHT22;17936;52.446;10.840;2022-12-07T07:14:09;3.40;99.90
31309;DHT22;17936;52.446;10.840;2022-12-07T07:16:34;3.40;99.90
31309;DHT22;17936;52.446;10.840;2022-12-07T07:19:02;3.40;99.90
31309;DHT22;17936;52.446;10.840;2022-12-07T07:21:28;3.40;99.90
31309;DHT22;17936;52.446;10.840;2022-12-07T07:23:54;3.50;99.90
31309;DHT22;17936;52.446;10.840;2022-12-07T07:26:21;3.50;99.90
31309;DHT22;17936;52.446;10.840;2022-12-07T07:28:47;3.50;99.90
31309;DHT22;17936;52.446;10.840;2022-12-07T07:31:12;3.50;99.90
31309;DHT22;17936;52.446;10.840;2022-12-07T07:33:38;3.50;99.90
31309;DHT22;17936;52.446;10.840;2022-12-07T07:36:06;3.50;99.90
31309;DHT22;17936;52.446;10.840;2022-12-07T07:38:32;3.50;99.90
31309;DHT22;17936;52.446;10.840;2022-12-07T07:41:00;3.50;99.90
31309;DHT22;17936;52.446;10.840;2022-12-07T07:43:28;3.40;99.90
31309;DHT22;17936;52.446;10.840;2022-12-07T07:45:56;3.40;99.90
31309;DHT22;17936;52.446;10.840;2022-12-07T07:48:21;3.40;99.90
31309;DHT22;17936;52.446;10.840;2022-12-07T07:51:05;3.40;99.90
31309;DHT22;17936;52.446;10.840;2022-12-07T07:53:33;3.40;99.90
31309;DHT22;17936;52.446;10.840;2022-12-07T07:55:59;3.40;99.90
31309;DHT22;17936;52.446;10.840;2022-12-07T07:58:24;3.40;99.90
31309;DHT22;17936;52.446;10.840;2022-12-07T08:00:50;3.40;99.90
31309;DHT22;17936;52.446;10.840;2022-12-07T08:03:16;3.40;99.90
31309;DHT22;17936;52.446;10.840;2022-12-07T08:05:49;3.40;99.90
31309;DHT22;17936;52.446;10.840;2022-12-07T08:08:14;3.40;99.90
31309;DHT22;17936;52.446;10.840;2022-12-07T08:10:50;3.40;99.90
31309;DHT22;17936;52.446;10.840;2022-12-07T08:13:23;3.40;99.90
31309;DHT22;17936;52.446;10.840;2022-12-07T08:15:48;3.30;99.90
31309;DHT22;17936;52.446;10.840;2022-12-07T08:18:14;3.40;99.90
31309;DHT22;17936;52.446;10.840;2022-12-07T08:20:43;3.40;99.90
31309;DHT22;17936;52.446;10.840;2022-12-07T08:23:11;3.40;99.90
31309;DHT22;17936;52.446;10.840;2022-12-07T08:25:36;3.50;99.90
31309;DHT22;17936;52.446;10.840;2022-12-07T08:28:04;3.40;99.90
31309;DHT22;17936;52.446;10.840;2022-12-07T08:30:30;3.50;99.90
31309;DHT22;17936;52.446;10.840;2022-12-07T08:32:56;3.50;99.90
31309;DHT22;17936;52.446;10.840;2022-12-07T08:35:22;3.50;99.90
31309;DHT22;17936;52.446;10.840;2022-12-07T08:37:51;3.50;99.90
31309;DHT22;17936;52.446;10.840;2022-12-07T08:40:19;3.50;99.90
31309;DHT22;17936;52.446;10.840;2022-12-07T08:42:50;3.50;99.90
31309;DHT22;17936;52.446;10.840;2022-12-07T08:45:16;3.50;99.90
31309;DHT22;17936;52.446;10.840;2022-12-07T08:47:50;3.50;99.90
31309;DHT22;17936;52.446;10.840;2022-12-07T08:50:20;3.60;99.90
31309;DHT22;17936;52.446;10.840;2022-12-07T08:52:52;3.60;99.90
31309;DHT22;17936;52.446;10.840;2022-12-07T08:55:18;3.60;99.90
31309;DHT22;17936;52.446;10.840;2022-12-07T08:57:44;3.60;99.90
31309;DHT22;17936;52.446;10.840;2022-12-07T09:00:10;3.60;99.90
31309;DHT22;17936;52.446;10.840;2022-12-07T09:02:36;3.60;99.90
31309;DHT22;17936;52.446;10.840;2022-12-07T09:05:02;3.70;99.90
31309;DHT22;17936;52.446;10.840;2022-12-07T09:07:41;3.70;99.90
31309;DHT22;17936;52.446;10.840;2022-12-07T09:10:18;3.70;99.90
31309;DHT22;17936;52.446;10.840;2022-12-07T09:12:46;3.70;99.90
31309;DHT22;17936;52.446;10.840;2022-12-07T09:15:14;3.70;99.90
31309;DHT22;17936;52.446;10.840;2022-12-07T09:17:42;3.80;99.90
31309;DHT22;17936;52.446;10.840;2022-12-07T09:20:08;3.80;99.90
31309;DHT22;17936;52.446;10.840;2022-12-07T09:22:40;3.80;99.90
31309;DHT22;17936;52.446;10.840;2022-12-07T09:25:05;3.80;99.90
31309;DHT22;17936;52.446;10.840;2022-12-07T09:27:31;3.80;99.90
31309;DHT22;17936;52.446;10.840;2022-12-07T09:29:57;3.80;99.90
31309;DHT22;17936;52.446;10.840;2022-12-07T09:32:25;3.80;99.90
31309;DHT22;17936;52.446;10.840;2022-12-07T09:34:53;3.80;99.90
31309;DHT22;17936;52.446;10.840;2022-12-07T09:37:29;3.70;99.90
31309;DHT22;17936;52.446;10.840;2022-12-07T09:39:58;3.70;99.90
31309;DHT22;17936;52.446;10.840;2022-12-07T09:42:42;3.70;99.90
31309;DHT22;17936;52.446;10.840;2022-12-07T09:45:44;3.70;99.90
31309;DHT22;17936;52.446;10.840;2022-12-07T09:48:33;3.70;99.90
31309;DHT22;17936;52.446;10.840;2022-12-07T09:51:17;3.70;99.90
31309;DHT22;17936;52.446;10.840;2022-12-07T09:56:45;3.80;99.90
31309;DHT22;17936;52.446;10.840;2022-12-07T09:59:16;3.80;99.90
31309;DHT22;17936;52.446;10.840;2022-12-07T10:01:52;3.90;99.90
31309;DHT22;17936;52.446;10.840;2022-12-07T10:04:23;3.90;99.90
31309;DHT22;17936;52.446;10.840;2022-12-07T10:06:49;3.80;99.90
31309;DHT22;17936;52.446;10.840;2022-12-07T10:09:18;3.80;99.90
31309;DHT22;17936;52.446;10.840;2022-12-07T10:12:07;3.90;99.90
31309;DHT22;17936;52.446;10.840;2022-12-07T10:17:29;3.90;99.90
31309;DHT22;17936;52.446;10.840;2022-12-07T10:20:28;3.90;99.90
31309;DHT22;17936;52.446;10.840;2022-12-07T10:23:00;3.90;99.90
31309;DHT22;17936;52.446;10.840;2022-12-07T10:25:28;3.90;99.90
31309;DHT22;17936;52.446;10.840;2022-12-07T10:28:09;3.90;99.90
31309;DHT22;17936;52.446;10.840;2022-12-07T10:30:55;3.90;99.90
31309;DHT22;17936;52.446;10.840;2022-12-07T10:35:59;3.90;99.90
31309;DHT22;17936;52.446;10.840;2022-12-07T10:38:33;3.90;99.90
31309;DHT22;17936;52.446;10.840;2022-12-07T10:41:08;3.90;99.90
31309;DHT22;17936;52.446;10.840;2022-12-07T10:43:34;3.90;99.90
31309;DHT22;17936;52.446;10.840;2022-12-07T10:46:50;3.90;99.90
31309;DHT22;17936;52.446;10.840;2022-12-07T10:49:37;4.00;99.90
31309;DHT22;17936;52.446;10.840;2022-12-07T11:04:11;4.20;99.90
31309;DHT22;17936;52.446;10.840;2022-12-07T11:12:05;4.20;99.90
31309;DHT22;17936;52.446;10.840;2022-12-07T11:15:01;4.30;99.90
31309;DHT22;17936;52.446;10.840;2022-12-07T11:26:13;4.30;99.90
31309;DHT22;17936;52.446;10.840;2022-12-07T11:31:18;4.40;99.90
31309;DHT22;17936;52.446;10.840;2022-12-07T11:34:08;4.30;99.90
31309;DHT22;17936;52.446;10.840;2022-12-07T11:36:41;4.20;99.90
31309;DHT22;17936;52.446;10.840;2022-12-07T11:41:49;4.30;99.90
31309;DHT22;17936;52.446;10.840;2022-12-07T11:46:58;4.40;99.90
31309;DHT22;17936;52.446;10.840;2022-12-07T11:49:41;4.40;99.90
31309;DHT22;17936;52.446;10.840;2022-12-07T11:52:33;4.30;99.90
31309;DHT22;17936;52.446;10.840;2022-12-07T11:55:16;4.40;99.90
31309;DHT22;17936;52.446;10.840;2022-12-07T11:57:58;4.50;99.90
31309;DHT22;17936;52.446;10.840;2022-12-07T12:00:49;4.50;99.90
31309;DHT22;17936;52.446;10.840;2022-12-07T12:03:55;4.40;99.90
31309;DHT22;17936;52.446;10.840;2022-12-07T12:06:29;4.40;99.90
31309;DHT22;17936;52.446;10.840;2022-12-07T12:12:33;4.30;99.90
31309;DHT22;17936;52.446;10.840;2022-12-07T12:17:47;4.30;99.90
31309;DHT22;17936;52.446;10.840;2022-12-07T12:20:49;4.30;99.90
31309;DHT22;17936;52.446;10.840;2022-12-07T12:26:25;4.30;99.90
31309;DHT22;17936;52.446;10.840;2022-12-07T12:29:39;4.30;99.90
31309;DHT22;17936;52.446;10.840;2022-12-07T12:32:16;4.30;99.90
31309;DHT22;17936;52.446;10.840;2022-12-07T12:35:20;4.40;99.90
31309;DHT22;17936;52.446;10.840;2022-12-07T12:37:48;4.50;99.90
31309;DHT22;17936;52.446;10.840;2022-12-07T12:42:49;4.50;99.90
31309;DHT22;17936;52.446;10.840;2022-12-07T12:45:22;4.60;99.90
31309;DHT22;17936;52.446;10.840;2022-12-07T12:48:09;4.60;99.90
31309;DHT22;17936;52.446;10.840;2022-12-07T12:50:48;4.70;99.90
31309;DHT22;17936;52.446;10.840;2022-12-07T12:53:21;4.60;99.90
31309;DHT22;17936;52.446;10.840;2022-12-07T12:56:28;4.60;99.90
31309;DHT22;17936;52.446;10.840;2022-12-07T13:01:49;4.50;99.90
31309;DHT22;17936;52.446;10.840;2022-12-07T13:04:22;4.60;99.90
31309;DHT22;17936;52.446;10.840;2022-12-07T13:06:49;4.60;99.90
31309;DHT22;17936;52.446;10.840;2022-12-07T13:09:34;4.60;99.90
31309;DHT22;17936;52.446;10.840;2022-12-07T13:12:13;4.50;99.90
31309;DHT22;17936;52.446;10.840;2022-12-07T13:14:57;4.50;99.90
31309;DHT22;17936;52.446;10.840;2022-12-07T13:20:05;4.50;99.90
31309;DHT22;17936;52.446;10.840;2022-12-07T13:25:29;4.50;99.90
31309;DHT22;17936;52.446;10.840;2022-12-07T13:28:18;4.50;99.90
31309;DHT22;17936;52.446;10.840;2022-12-07T13:30:57;4.40;99.90
31309;DHT22;17936;52.446;10.840;2022-12-07T13:33:28;4.40;99.90
31309;DHT22;17936;52.446;10.840;2022-12-07T13:35:55;4.40;99.90
31309;DHT22;17936;52.446;10.840;2022-12-07T13:38:35;4.40;99.90
31309;DHT22;17936;52.446;10.840;2022-12-07T13:41:19;4.40;99.90
31309;DHT22;17936;52.446;10.840;2022-12-07T13:44:00;4.40;99.90
31309;DHT22;17936;52.446;10.840;2022-12-07T13:46:48;4.40;99.90
31309;DHT22;17936;52.446;10.840;2022-12-07T13:49:47;4.40;99.90
31309;DHT22;17936;52.446;10.840;2022-12-07T13:52:18;4.30;99.90
31309;DHT22;17936;52.446;10.840;2022-12-07T13:57:22;4.30;99.90
31309;DHT22;17936;52.446;10.840;2022-12-07T13:59:49;4.30;99.90
31309;DHT22;17936;52.446;10.840;2022-12-07T14:02:28;4.30;99.90
31309;DHT22;17936;52.446;10.840;2022-12-07T14:05:12;4.30;99.90
31309;DHT22;17936;52.446;10.840;2022-12-07T14:07:59;4.30;99.90
31309;DHT22;17936;52.446;10.840;2022-12-07T14:12:56;4.20;99.90
31309;DHT22;17936;52.446;10.840;2022-12-07T14:15:24;4.20;99.90
31309;DHT22;17936;52.446;10.840;2022-12-07T14:17:56;4.30;99.90
31309;DHT22;17936;52.446;10.840;2022-12-07T14:20:40;4.30;99.90
31309;DHT22;17936;52.446;10.840;2022-12-07T14:23:25;4.20;99.90
31309;DHT22;17936;52.446;10.840;2022-12-07T14:26:03;4.20;99.90
31309;DHT22;17936;52.446;10.840;2022-12-07T14:28:40;4.10;99.90
31309;DHT22;17936;52.446;10.840;2022-12-07T14:31:18;4.10;99.90
31309;DHT22;17936;52.446;10.840;2022-12-07T14:33:48;4.10;99.90
31309;DHT22;17936;52.446;10.840;2022-12-07T14:36:14;4.10;99.90
31309;DHT22;17936;52.446;10.840;2022-12-07T14:38:40;4.10;99.90
31309;DHT22;17936;52.446;10.840;2022-12-07T14:41:12;4.10;99.90
31309;DHT22;17936;52.446;10.840;2022-12-07T14:43:58;4.10;99.90
31309;DHT22;17936;52.446;10.840;2022-12-07T14:46:26;3.90;99.90
31309;DHT22;17936;52.446;10.840;2022-12-07T14:48:51;3.60;99.90
31309;DHT22;17936;52.446;10.840;2022-12-07T14:51:17;3.40;99.90
31309;DHT22;17936;52.446;10.840;2022-12-07T14:53:46;3.40;99.90
31309;DHT22;17936;52.446;10.840;2022-12-07T14:56:16;3.40;99.90
31309;DHT22;17936;52.446;10.840;2022-12-07T14:58:41;3.30;99.90
31309;DHT22;17936;52.446;10.840;2022-12-07T15:01:07;3.20;99.90
31309;DHT22;17936;52.446;10.840;2022-12-07T15:03:35;3.20;99.90
31309;DHT22;17936;52.446;10.840;2022-12-07T15:06:04;3.10;99.90
31309;DHT22;17936;52.446;10.840;2022-12-07T15:08:29;2.70;99.90
31309;DHT22;17936;52.446;10.840;2022-12-07T15:10:58;2.60;99.90
31309;DHT22;17936;52.446;10.840;2022-12-07T15:13:23;2.70;99.90
31309;DHT22;17936;52.446;10.840;2022-12-07T15:16:11;2.60;99.90
31309;DHT22;17936;52.446;10.840;2022-12-07T15:18:40;2.40;99.90
31309;DHT22;17936;52.446;10.840;2022-12-07T15:21:12;2.40;99.90
31309;DHT22;17936;52.446;10.840;2022-12-07T15:23:39;2.50;99.90
31309;DHT22;17936;52.446;10.840;2022-12-07T15:26:04;2.50;99.90
31309;DHT22;17936;52.446;10.840;2022-12-07T15:28:35;2.40;99.90
31309;DHT22;17936;52.446;10.840;2022-12-07T15:31:16;2.20;99.90
31309;DHT22;17936;52.446;10.840;2022-12-07T15:33:45;2.00;99.90
31309;DHT22;17936;52.446;10.840;2022-12-07T15:36:48;1.80;99.90
31309;DHT22;17936;52.446;10.840;2022-12-07T15:39:19;1.80;99.90
31309;DHT22;17936;52.446;10.840;2022-12-07T15:44:38;1.90;99.90
31309;DHT22;17936;52.446;10.840;2022-12-07T15:47:22;2.00;99.90
31309;DHT22;17936;52.446;10.840;2022-12-07T15:49:56;1.80;99.90
31309;DHT22;17936;52.446;10.840;2022-12-07T15:52:56;1.80;99.90
31309;DHT22;17936;52.446;10.840;2022-12-07T15:58:55;1.90;99.90
31309;DHT22;17936;52.446;10.840;2022-12-07T16:01:25;1.90;99.90
31309;DHT22;17936;52.446;10.840;2022-12-07T16:04:20;2.00;99.90
31309;DHT22;17936;52.446;10.840;2022-12-07T16:10:59;1.80;99.90
31309;DHT22;17936;52.446;10.840;2022-12-07T16:19:54;1.70;99.90
31309;DHT22;17936;52.446;10.840;2022-12-07T16:22:20;1.90;99.90
31309;DHT22;17936;52.446;10.840;2022-12-07T16:24:45;2.00;99.90
31309;DHT22;17936;52.446;10.840;2022-12-07T16:27:11;1.80;99.90
31309;DHT22;17936;52.446;10.840;2022-12-07T16:29:36;1.80;99.90
31309;DHT22;17936;52.446;10.840;2022-12-07T16:32:02;1.80;99.90
31309;DHT22;17936;52.446;10.840;2022-12-07T16:34:27;1.90;99.90
31309;DHT22;17936;52.446;10.840;2022-12-07T16:36:53;1.90;99.90
31309;DHT22;17936;52.446;10.840;2022-12-07T16:39:18;1.70;99.90
31309;DHT22;17936;52.446;10.840;2022-12-07T16:41:44;1.50;99.90
31309;DHT22;17936;52.446;10.840;2022-12-07T16:44:11;1.40;99.90
31309;DHT22;17936;52.446;10.840;2022-12-07T16:46:38;1.40;99.90
31309;DHT22;17936;52.446;10.840;2022-12-07T16:49:04;1.50;99.90
31309;DHT22;17936;52.446;10.840;2022-12-07T16:51:29;1.50;99.90
31309;DHT22;17936;52.446;10.840;2022-12-07T16:53:55;1.50;99.90
31309;DHT22;17936;52.446;10.840;2022-12-07T16:56:21;1.60;99.90
31309;DHT22;17936;52.446;10.840;2022-12-07T16:58:46;1.50;99.90
31309;DHT22;17936;52.446;10.840;2022-12-07T17:01:20;1.40;99.90
31309;DHT22;17936;52.446;10.840;2022-12-07T17:03:49;1.50;99.90
31309;DHT22;17936;52.446;10.840;2022-12-07T17:06:21;1.40;99.90
31309;DHT22;17936;52.446;10.840;2022-12-07T17:08:47;1.50;99.90
31309;DHT22;17936;52.446;10.840;2022-12-07T17:11:18;1.60;99.90
31309;DHT22;17936;52.446;10.840;2022-12-07T17:13:44;1.50;99.90
31309;DHT22;17936;52.446;10.840;2022-12-07T17:16:29;1.40;99.90
31309;DHT22;17936;52.446;10.840;2022-12-07T17:18:54;1.50;99.90
31309;DHT22;17936;52.446;10.840;2022-12-07T17:21:20;1.50;99.90
31309;DHT22;17936;52.446;10.840;2022-12-07T17:23:46;1.50;99.90
31309;DHT22;17936;52.446;10.840;2022-12-07T17:26:21;1.50;99.90
31309;DHT22;17936;52.446;10.840;2022-12-07T17:28:47;1.50;99.90
31309;DHT22;17936;52.446;10.840;2022-12-07T17:31:15;1.60;99.90
31309;DHT22;17936;52.446;10.840;2022-12-07T17:33:41;1.60;99.90
31309;DHT22;17936;52.446;10.840;2022-12-07T17:36:15;1.60;99.90
31309;DHT22;17936;52.446;10.840;2022-12-07T17:38:41;1.60;99.90